sensor_id;sensor_type;location;lat;lon;timestamp;temperature;humidity
3705;DHT22;1868;48.918;9.438;2023-07-22T00:00:13;13.80;97.40
3705;DHT22;1868;48.918;9.438;2023-07-22T00:02:47;13.80;97.40
3705;DHT22;1868;48.918;9.438;2023-07-22T00:05:17;13.70;97.40
3705;DHT22;1868;48.918;9.438;2023-07-22T00:07:51;13.80;97.40
3705;DHT22;1868;48.918;9.438;2023-07-22T00:10:19;13.70;97.40
3705;DHT22;1868;48.918;9.438;2023-07-22T00:12:48;13.70;97.40
3705;DHT22;1868;48.918;9.438;2023-07-22T00:15:17;13.60;97.40
3705;DHT22;1868;48.918;9.438;2023-07-22T00:17:47;13.60;97.40
3705;DHT22;1868;48.918;9.438;2023-07-22T00:20:18;13.60;97.40
3705;DHT22;1868;48.918;9.438;2023-07-22T00:22:48;13.50;97.40
3705;DHT22;1868;48.918;9.438;2023-07-22T00:25:18;13.50;97.40
3705;DHT22;1868;48.918;9.438;2023-07-22T00:27:49;13.40;97.40
3705;DHT22;1868;48.918;9.438;2023-07-22T00:30:18;13.40;97.40
3705;DHT22;1868;48.918;9.438;2023-07-22T00:32:47;13.40;97.40
3705;DHT22;1868;48.918;9.438;2023-07-22T00:35:19;13.30;97.40
3705;DHT22;1868;48.918;9.438;2023-07-22T00:37:48;13.30;97.40
3705;DHT22;1868;48.918;9.438;2023-07-22T00:40:18;13.30;97.40
3705;DHT22;1868;48.918;9.438;2023-07-22T00:42:47;13.20;97.40
3705;DHT22;1868;48.918;9.438;2023-07-22T00:45:18;13.20;97.40
3705;DHT22;1868;48.918;9.438;2023-07-22T00:47:48;13.20;97.40
3705;DHT22;1868;48.918;9.438;2023-07-22T00:50:19;13.10;97.40
3705;DHT22;1868;48.918;9.438;2023-07-22T00:52:49;13.20;97.40
3705;DHT22;1868;48.918;9.438;2023-07-22T00:55:19;13.20;97.40
3705;DHT22;1868;48.918;9.438;2023-07-22T00:57:49;13.20;97.40
3705;DHT22;1868;48.918;9.438;2023-07-22T01:00:18;13.20;97.40
3705;DHT22;1868;48.918;9.438;2023-07-22T01:02:48;13.10;97.40
3705;DHT22;1868;48.918;9.438;2023-07-22T01:05:17;13.20;97.40
3705;DHT22;1868;48.918;9.438;2023-07-22T01:07:47;13.20;97.40
3705;DHT22;1868;48.918;9.438;2023-07-22T01:10:17;13.20;97.40
3705;DHT22;1868;48.918;9.438;2023-07-22T01:12:45;13.10;97.40
3705;DHT22;1868;48.918;9.438;2023-07-22T01:15:15;13.10;97.40
3705;DHT22;1868;48.918;9.438;2023-07-22T01:17:45;13.10;97.40
3705;DHT22;1868;48.918;9.438;2023-07-22T01:20:15;13.10;97.40
3705;DHT22;1868;48.918;9.438;2023-07-22T01:22:50;13.10;97.40
3705;DHT22;1868;48.918;9.438;2023-07-22T01:25:20;13.00;97.40
3705;DHT22;1868;48.918;9.438;2023-07-22T01:27:52;13.00;97.40
3705;DHT22;1868;48.918;9.438;2023-07-22T01:30:22;13.00;97.40
3705;DHT22;1868;48.918;9.438;2023-07-22T01:32:52;12.90;97.40
3705;DHT22;1868;48.918;9.438;2023-07-22T01:35:21;12.90;97.40
3705;DHT22;1868;48.918;9.438;2023-07-22T01:37:51;12.90;97.40
3705;DHT22;1868;48.918;9.438;2023-07-22T01:40:20;12.90;97.40
3705;DHT22;1868;48.918;9.438;2023-07-22T01:42:52;12.80;97.40
3705;DHT22;1868;48.918;9.438;2023-07-22T01:45:21;12.70;97.40
3705;DHT22;1868;48.918;9.438;2023-07-22T01:47:49;12.70;97.40
3705;DHT22;1868;48.918;9.438;2023-07-22T01:50:18;12.60;97.40
3705;DHT22;1868;48.918;9.438;2023-07-22T01:52:48;12.60;97.40
3705;DHT22;1868;48.918;9.438;2023-07-22T01:55:20;12.60;97.40
3705;DHT22;1868;48.918;9.438;2023-07-22T01:57:49;12.60;97.40
3705;DHT22;1868;48.918;9.438;2023-07-22T02:00:18;12.60;97.40
3705;DHT22;1868;48.918;9.438;2023-07-22T02:02:49;12.50;97.40
3705;DHT22;1868;48.918;9.438;2023-07-22T02:05:18;12.50;97.40
3705;DHT22;1868;48.918;9.438;2023-07-22T02:07:47;12.50;97.40
3705;DHT22;1868;48.918;9.438;2023-07-22T02:10:17;12.50;97.40
3705;DHT22;1868;48.918;9.438;2023-07-22T02:12:47;12.50;97.40
3705;DHT22;1868;48.918;9.438;2023-07-22T02:15:16;12.50;97.40
3705;DHT22;1868;48.918;9.438;2023-07-22T02:17:45;12.50;97.40
3705;DHT22;1868;48.918;9.438;2023-07-22T02:20:16;12.50;97.40
3705;DHT22;1868;48.918;9.438;2023-07-22T02:22:44;12.50;97.40
3705;DHT22;1868;48.918;9.438;2023-07-22T02:25:14;12.40;97.40
3705;DHT22;1868;48.918;9.438;2023-07-22T02:27:43;12.40;97.40
3705;DHT22;1868;48.918;9.438;2023-07-22T02:30:15;12.40;97.40
3705;DHT22;1868;48.918;9.438;2023-07-22T02:32:44;12.30;97.40
3705;DHT22;1868;48.918;9.438;2023-07-22T02:35:13;12.20;97.40
3705;DHT22;1868;48.918;9.438;2023-07-22T02:37:43;12.30;97.40
3705;DHT22;1868;48.918;9.438;2023-07-22T02:40:12;12.20;97.40
3705;DHT22;1868;48.918;9.438;2023-07-22T02:42:42;12.20;97.40
3705;DHT22;1868;48.918;9.438;2023-07-22T02:45:12;12.20;97.40
3705;DHT22;1868;48.918;9.438;2023-07-22T02:47:42;12.20;97.40
3705;DHT22;1868;48.918;9.438;2023-07-22T02:50:12;12.20;97.40
3705;DHT22;1868;48.918;9.438;2023-07-22T02:52:41;12.20;97.40
3705;DHT22;1868;48.918;9.438;2023-07-22T02:55:12;12.20;97.40
3705;DHT22;1868;48.918;9.438;2023-07-22T02:57:42;12.20;97.40
3705;DHT22;1868;48.918;9.438;2023-07-22T03:00:11;12.20;97.40
3705;DHT22;1868;48.918;9.438;2023-07-22T03:02:42;12.20;97.40
3705;DHT22;1868;48.918;9.438;2023-07-22T03:05:11;12.10;97.40
3705;DHT22;1868;48.918;9.438;2023-07-22T03:07:40;12.10;97.40
3705;DHT22;1868;48.918;9.438;2023-07-22T03:10:10;12.10;97.40
3705;DHT22;1868;48.918;9.438;2023-07-22T03:12:40;12.10;97.40
3705;DHT22;1868;48.918;9.438;2023-07-22T03:15:09;12.00;97.40
3705;DHT22;1868;48.918;9.438;2023-07-22T03:17:41;12.00;97.40
3705;DHT22;1868;48.918;9.438;2023-07-22T03:20:12;12.00;97.40
3705;DHT22;1868;48.918;9.438;2023-07-22T03:22:43;11.90;97.40
3705;DHT22;1868;48.918;9.438;2023-07-22T03:25:14;11.90;97.40
3705;DHT22;1868;48.918;9.438;2023-07-22T03:27:46;11.90;97.40
3705;DHT22;1868;48.918;9.438;2023-07-22T03:30:17;11.90;97.40
3705;DHT22;1868;48.918;9.438;2023-07-22T03:32:49;11.90;97.40
3705;DHT22;1868;48.918;9.438;2023-07-22T03:35:19;11.80;97.40
3705;DHT22;1868;48.918;9.438;2023-07-22T03:37:49;11.80;97.40
3705;DHT22;1868;48.918;9.438;2023-07-22T03:40:21;11.80;97.40
3705;DHT22;1868;48.918;9.438;2023-07-22T03:42:56;11.80;97.40
3705;DHT22;1868;48.918;9.438;2023-07-22T03:45:27;11.70;97.40
3705;DHT22;1868;48.918;9.438;2023-07-22T03:47:59;11.70;97.40
3705;DHT22;1868;48.918;9.438;2023-07-22T03:50:29;11.70;97.40
3705;DHT22;1868;48.918;9.438;2023-07-22T03:52:59;11.80;97.40
3705;DHT22;1868;48.918;9.438;2023-07-22T03:55:29;11.80;97.40
3705;DHT22;1868;48.918;9.438;2023-07-22T03:57:58;11.80;97.40
3705;DHT22;1868;48.918;9.438;2023-07-22T04:00:27;11.80;97.40
3705;DHT22;1868;48.918;9.438;2023-07-22T04:02:58;11.80;97.40
3705;DHT22;1868;48.918;9.438;2023-07-22T04:05:27;11.80;97.40
3705;DHT22;1868;48.918;9.438;2023-07-22T04:07:56;11.80;97.40
3705;DHT22;1868;48.918;9.438;2023-07-22T04:10:25;11.80;97.40
3705;DHT22;1868;48.918;9.438;2023-07-22T04:12:56;11.80;97.40
3705;DHT22;1868;48.918;9.438;2023-07-22T04:15:25;11.90;97.40
3705;DHT22;1868;48.918;9.438;2023-07-22T04:17:58;11.90;97.40
3705;DHT22;1868;48.918;9.438;2023-07-22T04:20:27;11.90;97.40
3705;DHT22;1868;48.918;9.438;2023-07-22T04:22:56;11.90;97.40
3705;DHT22;1868;48.918;9.438;2023-07-22T04:25:28;11.90;97.40
3705;DHT22;1868;48.918;9.438;2023-07-22T04:27:57;11.90;97.40
3705;DHT22;1868;48.918;9.438;2023-07-22T04:30:26;12.00;97.40
3705;DHT22;1868;48.918;9.438;2023-07-22T04:32:55;12.00;97.40
3705;DHT22;1868;48.918;9.438;2023-07-22T04:35:31;12.10;97.40
3705;DHT22;1868;48.918;9.438;2023-07-22T04:38:02;12.10;97.40
3705;DHT22;1868;48.918;9.438;2023-07-22T04:40:31;12.10;97.40
3705;DHT22;1868;48.918;9.438;2023-07-22T04:43:00;12.20;97.40
3705;DHT22;1868;48.918;9.438;2023-07-22T04:45:30;12.30;97.40
3705;DHT22;1868;48.918;9.438;2023-07-22T04:48:01;12.30;97.40
3705;DHT22;1868;48.918;9.438;2023-07-22T04:50:32;12.30;97.40
3705;DHT22;1868;48.918;9.438;2023-07-22T04:53:00;12.40;97.40
3705;DHT22;1868;48.918;9.438;2023-07-22T04:55:29;12.50;97.40
3705;DHT22;1868;48.918;9.438;2023-07-22T04:58:00;12.60;97.40
3705;DHT22;1868;48.918;9.438;2023-07-22T05:00:30;12.70;97.40
3705;DHT22;1868;48.918;9.438;2023-07-22T05:02:59;12.70;97.40
3705;DHT22;1868;48.918;9.438;2023-07-22T05:05:31;12.80;97.40
3705;DHT22;1868;48.918;9.438;2023-07-22T05:08:00;12.90;97.40
3705;DHT22;1868;48.918;9.438;2023-07-22T05:10:29;13.00;97.40
3705;DHT22;1868;48.918;9.438;2023-07-22T05:12:58;13.10;97.40
3705;DHT22;1868;48.918;9.438;2023-07-22T05:15:26;13.20;97.40
3705;DHT22;1868;48.918;9.438;2023-07-22T05:17:55;13.30;97.40
3705;DHT22;1868;48.918;9.438;2023-07-22T05:20:24;13.30;97.40
3705;DHT22;1868;48.918;9.438;2023-07-22T05:22:55;13.40;97.40
3705;DHT22;1868;48.918;9.438;2023-07-22T05:25:25;13.50;97.40
3705;DHT22;1868;48.918;9.438;2023-07-22T05:27:53;13.60;97.40
3705;DHT22;1868;48.918;9.438;2023-07-22T05:30:23;13.70;97.40
3705;DHT22;1868;48.918;9.438;2023-07-22T05:33:02;13.90;97.40
3705;DHT22;1868;48.918;9.438;2023-07-22T05:35:32;14.00;97.40
3705;DHT22;1868;48.918;9.438;2023-07-22T05:38:02;14.10;97.40
3705;DHT22;1868;48.918;9.438;2023-07-22T05:40:32;14.30;97.40
3705;DHT22;1868;48.918;9.438;2023-07-22T05:43:02;14.40;97.40
3705;DHT22;1868;48.918;9.438;2023-07-22T05:45:30;14.50;97.40
3705;DHT22;1868;48.918;9.438;2023-07-22T05:47:59;14.60;97.40
3705;DHT22;1868;48.918;9.438;2023-07-22T05:50:29;14.70;97.40
3705;DHT22;1868;48.918;9.438;2023-07-22T05:52:59;14.80;97.40
3705;DHT22;1868;48.918;9.438;2023-07-22T05:55:29;14.90;97.40
3705;DHT22;1868;48.918;9.438;2023-07-22T05:57:57;15.00;97.40
3705;DHT22;1868;48.918;9.438;2023-07-22T06:00:32;15.10;97.40
3705;DHT22;1868;48.918;9.438;2023-07-22T06:03:01;15.30;97.40
3705;DHT22;1868;48.918;9.438;2023-07-22T06:05:32;15.40;97.40
3705;DHT22;1868;48.918;9.438;2023-07-22T06:08:00;15.60;97.40
3705;DHT22;1868;48.918;9.438;2023-07-22T06:10:31;15.60;97.40
3705;DHT22;1868;48.918;9.438;2023-07-22T06:13:00;15.80;97.40
3705;DHT22;1868;48.918;9.438;2023-07-22T06:15:29;15.90;97.40
3705;DHT22;1868;48.918;9.438;2023-07-22T06:17:58;16.10;97.40
3705;DHT22;1868;48.918;9.438;2023-07-22T06:20:28;16.20;97.40
3705;DHT22;1868;48.918;9.438;2023-07-22T06:22:57;16.50;97.40
3705;DHT22;1868;48.918;9.438;2023-07-22T06:25:25;16.90;97.40
3705;DHT22;1868;48.918;9.438;2023-07-22T06:27:56;17.00;97.40
3705;DHT22;1868;48.918;9.438;2023-07-22T06:30:25;17.10;97.40
3705;DHT22;1868;48.918;9.438;2023-07-22T06:32:54;17.30;97.40
3705;DHT22;1868;48.918;9.438;2023-07-22T06:35:23;17.40;97.40
3705;DHT22;1868;48.918;9.438;2023-07-22T06:37:54;17.50;97.40
3705;DHT22;1868;48.918;9.438;2023-07-22T06:42:52;17.80;97.40
3705;DHT22;1868;48.918;9.438;2023-07-22T06:45:23;18.10;97.40
3705;DHT22;1868;48.918;9.438;2023-07-22T06:48:00;18.10;97.40
3705;DHT22;1868;48.918;9.438;2023-07-22T06:50:30;18.30;97.40
3705;DHT22;1868;48.918;9.438;2023-07-22T06:52:59;18.50;97.40
3705;DHT22;1868;48.918;9.438;2023-07-22T06:55:29;18.60;97.40
3705;DHT22;1868;48.918;9.438;2023-07-22T06:57:58;18.80;97.40
3705;DHT22;1868;48.918;9.438;2023-07-22T07:00:28;19.00;97.40
3705;DHT22;1868;48.918;9.438;2023-07-22T07:02:57;19.10;97.40
3705;DHT22;1868;48.918;9.438;2023-07-22T07:05:25;19.40;97.40
3705;DHT22;1868;48.918;9.438;2023-07-22T07:07:56;19.40;97.40
3705;DHT22;1868;48.918;9.438;2023-07-22T07:10:25;19.50;97.40
3705;DHT22;1868;48.918;9.438;2023-07-22T07:12:55;19.70;97.40
3705;DHT22;1868;48.918;9.438;2023-07-22T07:15:23;20.00;97.40
3705;DHT22;1868;48.918;9.438;2023-07-22T07:17:57;20.00;97.40
3705;DHT22;1868;48.918;9.438;2023-07-22T07:20:26;20.20;97.40
3705;DHT22;1868;48.918;9.438;2023-07-22T07:22:55;20.40;97.40
3705;DHT22;1868;48.918;9.438;2023-07-22T07:25:24;20.50;97.40
3705;DHT22;1868;48.918;9.438;2023-07-22T07:27:53;20.50;97.40
3705;DHT22;1868;48.918;9.438;2023-07-22T07:30:22;20.60;97.40
3705;DHT22;1868;48.918;9.438;2023-07-22T07:32:54;20.70;97.40
3705;DHT22;1868;48.918;9.438;2023-07-22T07:35:23;20.70;97.40
3705;DHT22;1868;48.918;9.438;2023-07-22T07:37:52;20.70;97.40
3705;DHT22;1868;48.918;9.438;2023-07-22T07:40:21;20.90;97.40
3705;DHT22;1868;48.918;9.438;2023-07-22T07:42:50;21.10;97.40
3705;DHT22;1868;48.918;9.438;2023-07-22T07:45:19;21.30;97.40
3705;DHT22;1868;48.918;9.438;2023-07-22T07:47:47;21.50;97.40
3705;DHT22;1868;48.918;9.438;2023-07-22T07:50:18;21.70;97.40
3705;DHT22;1868;48.918;9.438;2023-07-22T07:52:47;21.80;97.40
3705;DHT22;1868;48.918;9.438;2023-07-22T07:55:17;21.90;97.40
3705;DHT22;1868;48.918;9.438;2023-07-22T07:57:46;22.00;97.40
3705;DHT22;1868;48.918;9.438;2023-07-22T08:00:15;21.90;97.40
3705;DHT22;1868;48.918;9.438;2023-07-22T08:02:45;22.10;97.40
3705;DHT22;1868;48.918;9.438;2023-07-22T08:05:14;22.20;97.40
3705;DHT22;1868;48.918;9.438;2023-07-22T08:07:44;22.20;97.40
3705;DHT22;1868;48.918;9.438;2023-07-22T08:10:14;22.30;97.40
3705;DHT22;1868;48.918;9.438;2023-07-22T08:12:43;22.50;97.40
3705;DHT22;1868;48.918;9.438;2023-07-22T08:15:14;22.60;96.80
3705;DHT22;1868;48.918;9.438;2023-07-22T08:17:43;22.70;96.40
3705;DHT22;1868;48.918;9.438;2023-07-22T08:20:12;22.70;95.60
3705;DHT22;1868;48.918;9.438;2023-07-22T08:22:41;22.50;95.40
3705;DHT22;1868;48.918;9.438;2023-07-22T08:25:11;22.50;95.60
3705;DHT22;1868;48.918;9.438;2023-07-22T08:27:40;22.50;95.60
3705;DHT22;1868;48.918;9.438;2023-07-22T08:30:10;22.80;95.50
3705;DHT22;1868;48.918;9.438;2023-07-22T08:32:39;23.00;95.40
3705;DHT22;1868;48.918;9.438;2023-07-22T08:35:10;23.20;95.60
3705;DHT22;1868;48.918;9.438;2023-07-22T08:37:38;23.40;94.00
3705;DHT22;1868;48.918;9.438;2023-07-22T08:40:12;23.60;94.60
3705;DHT22;1868;48.918;9.438;2023-07-22T08:42:41;23.70;93.30
3705;DHT22;1868;48.918;9.438;2023-07-22T08:45:10;24.00;93.80
3705;DHT22;1868;48.918;9.438;2023-07-22T08:47:46;24.20;94.40
3705;DHT22;1868;48.918;9.438;2023-07-22T08:50:20;24.40;91.20
3705;DHT22;1868;48.918;9.438;2023-07-22T08:52:49;24.50;91.40
3705;DHT22;1868;48.918;9.438;2023-07-22T08:55:21;24.70;91.60
3705;DHT22;1868;48.918;9.438;2023-07-22T08:57:52;24.90;85.80
3705;DHT22;1868;48.918;9.438;2023-07-22T09:00:21;25.00;90.20
3705;DHT22;1868;48.918;9.438;2023-07-22T09:02:50;25.30;88.60
3705;DHT22;1868;48.918;9.438;2023-07-22T09:05:22;25.50;84.10
3705;DHT22;1868;48.918;9.438;2023-07-22T09:07:52;25.70;83.40
3705;DHT22;1868;48.918;9.438;2023-07-22T09:10:24;25.90;80.40
3705;DHT22;1868;48.918;9.438;2023-07-22T09:12:57;25.90;83.20
3705;DHT22;1868;48.918;9.438;2023-07-22T09:15:29;25.90;82.80
3705;DHT22;1868;48.918;9.438;2023-07-22T09:18:00;26.00;81.70
3705;DHT22;1868;48.918;9.438;2023-07-22T09:20:30;26.10;83.40
3705;DHT22;1868;48.918;9.438;2023-07-22T09:22:59;26.20;80.00
3705;DHT22;1868;48.918;9.438;2023-07-22T09:25:42;26.10;79.90
3705;DHT22;1868;48.918;9.438;2023-07-22T09:28:11;25.80;80.20
3705;DHT22;1868;48.918;9.438;2023-07-22T09:30:41;25.70;81.70
3705;DHT22;1868;48.918;9.438;2023-07-22T09:33:20;25.40;83.40
3705;DHT22;1868;48.918;9.438;2023-07-22T09:35:55;25.30;84.50
3705;DHT22;1868;48.918;9.438;2023-07-22T09:38:25;25.10;85.60
3705;DHT22;1868;48.918;9.438;2023-07-22T09:40:56;24.90;87.70
3705;DHT22;1868;48.918;9.438;2023-07-22T09:43:25;24.80;88.40
3705;DHT22;1868;48.918;9.438;2023-07-22T09:45:54;24.70;89.00
3705;DHT22;1868;48.918;9.438;2023-07-22T09:48:23;24.60;88.80
3705;DHT22;1868;48.918;9.438;2023-07-22T09:50:56;24.50;89.60
3705;DHT22;1868;48.918;9.438;2023-07-22T09:53:25;24.50;89.40
3705;DHT22;1868;48.918;9.438;2023-07-22T09:56:03;24.70;88.20
3705;DHT22;1868;48.918;9.438;2023-07-22T09:58:32;24.90;87.30
3705;DHT22;1868;48.918;9.438;2023-07-22T10:01:02;25.20;86.00
3705;DHT22;1868;48.918;9.438;2023-07-22T10:03:32;25.50;85.60
3705;DHT22;1868;48.918;9.438;2023-07-22T10:06:05;25.80;83.80
3705;DHT22;1868;48.918;9.438;2023-07-22T10:08:34;26.10;83.00
3705;DHT22;1868;48.918;9.438;2023-07-22T10:11:07;26.40;82.10
3705;DHT22;1868;48.918;9.438;2023-07-22T10:13:38;26.70;81.40
3705;DHT22;1868;48.918;9.438;2023-07-22T10:16:08;26.90;77.30
3705;DHT22;1868;48.918;9.438;2023-07-22T10:18:38;26.90;75.60
3705;DHT22;1868;48.918;9.438;2023-07-22T10:21:10;26.90;75.90
3705;DHT22;1868;48.918;9.438;2023-07-22T10:23:39;27.10;76.30
3705;DHT22;1868;48.918;9.438;2023-07-22T10:26:10;27.20;76.70
3705;DHT22;1868;48.918;9.438;2023-07-22T10:28:43;27.60;76.10
3705;DHT22;1868;48.918;9.438;2023-07-22T10:31:13;28.30;73.90
3705;DHT22;1868;48.918;9.438;2023-07-22T10:33:46;28.50;72.00
3705;DHT22;1868;48.918;9.438;2023-07-22T10:36:17;28.80;71.80
3705;DHT22;1868;48.918;9.438;2023-07-22T10:38:55;28.80;70.90
3705;DHT22;1868;48.918;9.438;2023-07-22T10:41:32;29.40;70.40
3705;DHT22;1868;48.918;9.438;2023-07-22T10:44:01;29.40;66.80
3705;DHT22;1868;48.918;9.438;2023-07-22T10:46:34;29.00;67.40
3705;DHT22;1868;48.918;9.438;2023-07-22T10:49:12;28.70;67.70
3705;DHT22;1868;48.918;9.438;2023-07-22T10:51:48;28.50;67.00
3705;DHT22;1868;48.918;9.438;2023-07-22T10:54:32;28.30;70.20
3705;DHT22;1868;48.918;9.438;2023-07-22T10:57:22;28.30;70.40
3705;DHT22;1868;48.918;9.438;2023-07-22T10:59:52;28.30;69.60
3705;DHT22;1868;48.918;9.438;2023-07-22T11:02:24;28.10;68.90
3705;DHT22;1868;48.918;9.438;2023-07-22T11:04:56;28.10;71.50
3705;DHT22;1868;48.918;9.438;2023-07-22T11:07:32;28.30;67.70
3705;DHT22;1868;48.918;9.438;2023-07-22T11:10:14;28.50;68.70
3705;DHT22;1868;48.918;9.438;2023-07-22T11:12:48;29.30;68.50
3705;DHT22;1868;48.918;9.438;2023-07-22T11:15:17;29.10;63.50
3705;DHT22;1868;48.918;9.438;2023-07-22T11:17:48;29.30;63.10
3705;DHT22;1868;48.918;9.438;2023-07-22T11:20:17;29.40;59.90
3705;DHT22;1868;48.918;9.438;2023-07-22T11:22:46;28.90;60.70
3705;DHT22;1868;48.918;9.438;2023-07-22T11:25:18;28.90;62.20
3705;DHT22;1868;48.918;9.438;2023-07-22T11:27:49;29.50;59.90
3705;DHT22;1868;48.918;9.438;2023-07-22T11:30:23;30.20;58.70
3705;DHT22;1868;48.918;9.438;2023-07-22T11:32:52;31.20;58.60
3705;DHT22;1868;48.918;9.438;2023-07-22T11:35:21;31.90;54.80
3705;DHT22;1868;48.918;9.438;2023-07-22T11:38:00;32.40;51.90
3705;DHT22;1868;48.918;9.438;2023-07-22T11:40:33;31.90;52.80
3705;DHT22;1868;48.918;9.438;2023-07-22T11:43:04;31.10;53.40
3705;DHT22;1868;48.918;9.438;2023-07-22T11:45:38;30.70;54.00
3705;DHT22;1868;48.918;9.438;2023-07-22T11:48:10;30.40;54.80
3705;DHT22;1868;48.918;9.438;2023-07-22T11:50:40;29.70;53.70
3705;DHT22;1868;48.918;9.438;2023-07-22T11:53:09;29.20;55.20
3705;DHT22;1868;48.918;9.438;2023-07-22T11:55:38;29.00;56.30
3705;DHT22;1868;48.918;9.438;2023-07-22T11:58:10;28.80;58.00
3705;DHT22;1868;48.918;9.438;2023-07-22T12:00:42;28.60;57.70
3705;DHT22;1868;48.918;9.438;2023-07-22T12:03:32;28.70;58.00
3705;DHT22;1868;48.918;9.438;2023-07-22T12:06:02;28.60;56.10
3705;DHT22;1868;48.918;9.438;2023-07-22T12:08:32;28.70;55.50
3705;DHT22;1868;48.918;9.438;2023-07-22T12:11:01;28.60;55.50
3705;DHT22;1868;48.918;9.438;2023-07-22T12:13:37;29.40;57.50
3705;DHT22;1868;48.918;9.438;2023-07-22T12:16:09;30.10;55.80
3705;DHT22;1868;48.918;9.438;2023-07-22T12:18:42;30.30;54.20
3705;DHT22;1868;48.918;9.438;2023-07-22T12:21:11;30.80;54.60
3705;DHT22;1868;48.918;9.438;2023-07-22T12:23:41;31.00;50.30
3705;DHT22;1868;48.918;9.438;2023-07-22T12:26:10;31.00;52.20
3705;DHT22;1868;48.918;9.438;2023-07-22T12:28:41;31.00;49.40
3705;DHT22;1868;48.918;9.438;2023-07-22T12:31:10;31.40;51.00
3705;DHT22;1868;48.918;9.438;2023-07-22T12:33:39;31.40;48.70
3705;DHT22;1868;48.918;9.438;2023-07-22T12:36:08;31.40;49.40
3705;DHT22;1868;48.918;9.438;2023-07-22T12:38:37;30.80;51.90
3705;DHT22;1868;48.918;9.438;2023-07-22T12:41:07;30.80;51.60
3705;DHT22;1868;48.918;9.438;2023-07-22T12:43:36;31.00;51.60
3705;DHT22;1868;48.918;9.438;2023-07-22T12:46:06;30.90;51.10
3705;DHT22;1868;48.918;9.438;2023-07-22T12:48:35;31.00;51.30
3705;DHT22;1868;48.918;9.438;2023-07-22T12:51:05;31.30;51.40
3705;DHT22;1868;48.918;9.438;2023-07-22T12:53:36;31.40;50.70
3705;DHT22;1868;48.918;9.438;2023-07-22T12:56:05;31.30;50.00
3705;DHT22;1868;48.918;9.438;2023-07-22T12:58:35;30.90;50.30
3705;DHT22;1868;48.918;9.438;2023-07-22T13:01:06;30.90;51.30
3705;DHT22;1868;48.918;9.438;2023-07-22T13:03:35;30.90;50.30
3705;DHT22;1868;48.918;9.438;2023-07-22T13:06:04;30.30;50.30
3705;DHT22;1868;48.918;9.438;2023-07-22T13:08:33;29.90;53.90
3705;DHT22;1868;48.918;9.438;2023-07-22T13:11:02;29.50;52.30
3705;DHT22;1868;48.918;9.438;2023-07-22T13:13:31;29.30;53.10
3705;DHT22;1868;48.918;9.438;2023-07-22T13:16:00;29.60;52.80
3705;DHT22;1868;48.918;9.438;2023-07-22T13:18:32;29.80;52.30
3705;DHT22;1868;48.918;9.438;2023-07-22T13:21:01;30.30;51.70
3705;DHT22;1868;48.918;9.438;2023-07-22T13:23:30;30.70;50.70
3705;DHT22;1868;48.918;9.438;2023-07-22T13:25:59;30.30;51.40
3705;DHT22;1868;48.918;9.438;2023-07-22T13:28:28;30.00;51.90
3705;DHT22;1868;48.918;9.438;2023-07-22T13:30:57;30.00;52.90
3705;DHT22;1868;48.918;9.438;2023-07-22T13:33:26;30.20;53.50
3705;DHT22;1868;48.918;9.438;2023-07-22T13:35:56;30.20;53.50
3705;DHT22;1868;48.918;9.438;2023-07-22T13:38:25;30.40;53.20
3705;DHT22;1868;48.918;9.438;2023-07-22T13:40:54;30.10;53.10
3705;DHT22;1868;48.918;9.438;2023-07-22T13:43:23;30.00;55.10
3705;DHT22;1868;48.918;9.438;2023-07-22T13:45:52;29.90;54.90
3705;DHT22;1868;48.918;9.438;2023-07-22T13:48:21;29.90;55.80
3705;DHT22;1868;48.918;9.438;2023-07-22T13:50:51;30.10;55.70
3705;DHT22;1868;48.918;9.438;2023-07-22T13:53:22;30.20;54.00
3705;DHT22;1868;48.918;9.438;2023-07-22T13:55:51;30.20;53.10
3705;DHT22;1868;48.918;9.438;2023-07-22T13:58:22;30.20;53.50
3705;DHT22;1868;48.918;9.438;2023-07-22T14:00:51;30.10;53.20
3705;DHT22;1868;48.918;9.438;2023-07-22T14:03:20;30.10;53.40
3705;DHT22;1868;48.918;9.438;2023-07-22T14:05:48;30.10;54.00
3705;DHT22;1868;48.918;9.438;2023-07-22T14:08:17;30.10;53.10
3705;DHT22;1868;48.918;9.438;2023-07-22T14:10:48;30.10;54.20
3705;DHT22;1868;48.918;9.438;2023-07-22T14:13:16;30.10;52.80
3705;DHT22;1868;48.918;9.438;2023-07-22T14:15:45;30.10;54.80
3705;DHT22;1868;48.918;9.438;2023-07-22T14:18:18;30.00;54.20
3705;DHT22;1868;48.918;9.438;2023-07-22T14:20:47;29.70;54.80
3705;DHT22;1868;48.918;9.438;2023-07-22T14:23:17;29.40;54.60
3705;DHT22;1868;48.918;9.438;2023-07-22T14:25:47;29.10;55.20
3705;DHT22;1868;48.918;9.438;2023-07-22T14:28:16;29.00;56.40
3705;DHT22;1868;48.918;9.438;2023-07-22T14:30:45;29.00;55.70
3705;DHT22;1868;48.918;9.438;2023-07-22T14:33:14;29.00;55.50
3705;DHT22;1868;48.918;9.438;2023-07-22T14:35:43;28.80;55.80
3705;DHT22;1868;48.918;9.438;2023-07-22T14:38:13;28.70;55.10
3705;DHT22;1868;48.918;9.438;2023-07-22T14:40:43;28.80;56.90
3705;DHT22;1868;48.918;9.438;2023-07-22T14:43:14;28.70;57.70
3705;DHT22;1868;48.918;9.438;2023-07-22T14:45:43;28.70;58.30
3705;DHT22;1868;48.918;9.438;2023-07-22T14:48:12;28.90;57.70
3705;DHT22;1868;48.918;9.438;2023-07-22T14:50:41;29.00;56.60
3705;DHT22;1868;48.918;9.438;2023-07-22T14:53:11;28.90;56.00
3705;DHT22;1868;48.918;9.438;2023-07-22T14:55:40;28.70;55.80
3705;DHT22;1868;48.918;9.438;2023-07-22T14:58:09;28.60;56.90
3705;DHT22;1868;48.918;9.438;2023-07-22T15:00:39;28.40;57.80
3705;DHT22;1868;48.918;9.438;2023-07-22T15:03:08;28.20;58.70
3705;DHT22;1868;48.918;9.438;2023-07-22T15:05:39;28.30;59.20
3705;DHT22;1868;48.918;9.438;2023-07-22T15:08:07;28.30;58.30
3705;DHT22;1868;48.918;9.438;2023-07-22T15:10:36;28.10;57.50
3705;DHT22;1868;48.918;9.438;2023-07-22T15:13:05;28.00;57.80
3705;DHT22;1868;48.918;9.438;2023-07-22T15:15:34;27.80;58.60
3705;DHT22;1868;48.918;9.438;2023-07-22T15:18:05;27.60;59.50
3705;DHT22;1868;48.918;9.438;2023-07-22T15:20:35;27.70;60.30
3705;DHT22;1868;48.918;9.438;2023-07-22T15:23:04;27.80;61.00
3705;DHT22;1868;48.918;9.438;2023-07-22T15:25:34;27.80;60.50
3705;DHT22;1868;48.918;9.438;2023-07-22T15:28:03;27.80;59.80
3705;DHT22;1868;48.918;9.438;2023-07-22T15:30:33;27.70;60.30
3705;DHT22;1868;48.918;9.438;2023-07-22T15:33:02;27.60;60.30
3705;DHT22;1868;48.918;9.438;2023-07-22T15:35:32;27.60;59.30
3705;DHT22;1868;48.918;9.438;2023-07-22T15:38:01;27.50;59.60
3705;DHT22;1868;48.918;9.438;2023-07-22T15:40:29;27.50;60.30
3705;DHT22;1868;48.918;9.438;2023-07-22T15:42:58;27.50;60.50
3705;DHT22;1868;48.918;9.438;2023-07-22T15:45:26;27.50;60.90
3705;DHT22;1868;48.918;9.438;2023-07-22T15:47:55;27.60;60.10
3705;DHT22;1868;48.918;9.438;2023-07-22T15:50:24;27.60;60.50
3705;DHT22;1868;48.918;9.438;2023-07-22T15:52:54;27.50;59.50
3705;DHT22;1868;48.918;9.438;2023-07-22T15:55:24;27.20;58.60
3705;DHT22;1868;48.918;9.438;2023-07-22T15:57:53;27.20;58.90
3705;DHT22;1868;48.918;9.438;2023-07-22T16:00:24;27.10;60.10
3705;DHT22;1868;48.918;9.438;2023-07-22T16:02:53;27.10;60.30
3705;DHT22;1868;48.918;9.438;2023-07-22T16:05:22;27.10;59.80
3705;DHT22;1868;48.918;9.438;2023-07-22T16:07:51;27.20;59.30
3705;DHT22;1868;48.918;9.438;2023-07-22T16:10:22;27.30;60.90
3705;DHT22;1868;48.918;9.438;2023-07-22T16:12:51;27.20;59.20
3705;DHT22;1868;48.918;9.438;2023-07-22T16:15:20;27.10;60.50
3705;DHT22;1868;48.918;9.438;2023-07-22T16:17:50;27.00;59.90
3705;DHT22;1868;48.918;9.438;2023-07-22T16:20:19;26.90;62.20
3705;DHT22;1868;48.918;9.438;2023-07-22T16:22:48;26.90;61.80